Airfield :
LOGIN :

Register | Disclaimer

   EN    FR    IT 

 










Legend :    VFR   Marginal VFR   IFR   Intensive IFR   Very Intensive IFR
Visi :
Ceiling :
>= 8 km
>= 3000ft
5 to 8 km
1000 to 3000 ft
1500m to 5 km
500 to 1000 ft
800 to 1500m
200 to 500 ft
< 800m
< 200 ft
Symbols :   Thunderstorms  Fog  Heavy snow  Heavy precipitations  Wind > 20 kt
SIGMETs :     Misc.  Thunderstorms  Icing  Turbulence  Mountain Waves  Volcanic Ashes






- Airport Elevation : 32 ft
- IATA code : LKZ


EGUL - RAF Lakenheath

CURRENT METAR :
  • 230156Z AUTO 20004KT 9999 OVC055 09/00 A3023 RMK AO2 SLP240 T00900002 $

EXPIRED METARs :
  • 230056Z AUTO 20003KT 9999 OVC060 09/M00 A3023 RMK AO2 SLP240 T00901001 $
  • 222356Z AUTO 19003KT 9999 OVC055 09/00 A3023 RMK AO2 SLP240 T00880003 10092 20067 401220045 51009 $

TAF AMD TAF EGUL
Valid from the 22 at 13:00 until the 23 at 19:00 UTC


221346Z 2213/2319 28015G20KT 9000 -DZ SCT020 BKN030 QNH3006INS
BECMG 2215/2216 29010G15KT 8000 -SHRA SCT020 BKN050 QNH3009INS
BECMG 2220/2221 27009KT 8000 BR BKN020 QNH3019INS
BECMG 2303/2304 22006KT 9999 NSW SCT020 BKN050 QNH3020INS
BECMG 2311/2312 21010G15KT 9999 SCT020 BKN040 QNH3021INS TX13/2313Z TN07/2307Z LAST NO AMDS AFT 2213 NEXT 2505



MET'MAP, your aeronautical weather chart ! - Copyright ORBIFLY December 2007 - Disclaimer

ORBIFLY MET'MAP TEAM :

Programming & Development : Alexandra Zaïnal
Concept & original design : Baudouin d'Aumeries
Assistance for programming : Marc-Olivier Méhu
Technical & hardware support : Manuel Goepfert

Contact : metmap@orbifly.com




SOURCES & CREDITS :

   NOAA